Time;durP1;ratioP1;P1;durP2;ratioP2;P2;SDS_P1;SDS_P2;PMS_P1;PMS_P2;Temp;Humidity;BMP_temperature;BMP_pressure;BME280_temperature;BME280_humidity;BME280_pressure;Samples;Min_cycle;Max_cycle;Signal;HPM_P1;HPM_P2
2021/09/05 00:01:36;;;;;;;1.98;0.60;;;;;;;19.38;61.05;102708.06;5055094;28;20025;-59
2021/09/05 00:04:02;;;;;;;1.90;0.80;;;;;;;19.49;60.61;102708.00;5054911;28;20033;-59
2021/09/05 00:06:30;;;;;;;2.42;0.80;;;;;;;19.42;61.79;102714.97;5054875;28;20021;-58
2021/09/05 00:08:56;;;;;;;1.45;0.57;;;;;;;19.43;60.57;102710.41;5054758;28;20458;-59
2021/09/05 00:11:22;;;;;;;3.22;1.13;;;;;;;19.33;61.49;102709.50;5054845;28;20025;-59
2021/09/05 00:13:47;;;;;;;1.80;0.50;;;;;;;19.33;61.99;102710.34;5054731;28;20021;-59
2021/09/05 00:16:12;;;;;;;2.67;0.90;;;;;;;19.34;62.26;102706.63;5054641;28;20021;-59
2021/09/05 00:18:38;;;;;;;3.90;0.93;;;;;;;19.44;60.92;102706.66;5054807;28;20470;-59
2021/09/05 00:21:03;;;;;;;4.43;1.08;;;;;;;19.42;60.87;102709.53;5054558;28;20020;-59
2021/09/05 00:23:28;;;;;;;1.27;0.60;;;;;;;19.35;61.75;102713.81;5054351;28;20028;-59
2021/09/05 00:25:54;;;;;;;3.47;1.02;;;;;;;19.46;61.56;102707.41;5054491;28;20028;-59
2021/09/05 00:28:19;;;;;;;4.97;1.00;;;;;;;19.47;60.63;102712.72;5054483;28;20068;-59
2021/09/05 00:30:44;;;;;;;1.02;0.57;;;;;;;19.36;61.44;102709.22;5054451;28;20112;-59
2021/09/05 00:33:10;;;;;;;2.45;1.00;;;;;;;19.40;61.54;102716.97;5054437;28;20020;-59
2021/09/05 00:35:35;;;;;;;2.65;0.90;;;;;;;19.47;60.75;102718.16;5054223;28;20025;-59
2021/09/05 00:38:01;;;;;;;2.13;0.60;;;;;;;19.31;61.23;102723.22;5054180;28;20032;-58
2021/09/05 00:40:26;;;;;;;4.97;1.17;;;;;;;19.35;61.03;102713.81;5054054;28;20024;-59
2021/09/05 00:42:51;;;;;;;3.35;1.10;;;;;;;19.42;61.01;102714.97;5054197;28;20397;-59
2021/09/05 00:45:17;;;;;;;2.17;0.82;;;;;;;19.37;61.57;102721.84;5054068;28;20488;-59
2021/09/05 00:47:42;;;;;;;2.72;1.02;;;;;;;19.38;60.94;102718.13;5054003;28;20033;-59
2021/09/05 00:50:09;;;;;;;1.90;0.80;;;;;;;19.32;61.41;102714.06;5053865;28;20025;-58
2021/09/05 00:52:36;;;;;;;4.13;1.15;;;;;;;19.34;60.98;102723.00;5054078;28;20075;-59
2021/09/05 00:55:02;;;;;;;4.25;0.82;;;;;;;19.39;60.92;102720.72;5053933;28;20036;-59
2021/09/05 00:57:27;;;;;;;2.33;0.88;;;;;;;19.33;62.09;102723.13;5054044;28;20028;-59
2021/09/05 00:59:52;;;;;;;3.22;0.68;;;;;;;19.37;61.19;102727.31;5053839;28;20162;-59
2021/09/05 01:02:18;;;;;;;1.55;0.68;;;;;;;19.36;61.57;102721.00;5053714;28;20036;-58
2021/09/05 01:04:43;;;;;;;2.17;0.80;;;;;;;19.32;61.28;102719.53;5053973;28;20028;-60
2021/09/05 01:07:10;;;;;;;1.73;0.90;;;;;;;19.38;61.41;102724.44;5053416;28;20031;-59
2021/09/05 01:09:35;;;;;;;0.98;0.50;;;;;;;19.37;60.73;102725.44;5053753;28;20032;-59
2021/09/05 01:12:01;;;;;;;1.75;0.50;;;;;;;19.30;61.94;102726.94;5053469;28;20615;-59
2021/09/05 01:14:27;;;;;;;2.50;1.08;;;;;;;19.26;61.28;102725.50;5053645;28;20112;-59
2021/09/05 01:16:53;;;;;;;3.75;0.60;;;;;;;19.28;61.62;102728.94;5053493;28;20426;-59
2021/09/05 01:19:21;;;;;;;2.40;0.88;;;;;;;19.30;61.21;102726.94;5053537;28;20021;-59
2021/09/05 01:21:48;;;;;;;3.42;1.13;;;;;;;19.22;62.08;102724.91;5053454;28;20070;-60
2021/09/05 01:24:16;;;;;;;2.53;0.77;;;;;;;19.34;60.86;102725.72;5053378;28;20021;-59
2021/09/05 01:26:44;;;;;;;1.50;0.95;;;;;;;19.23;61.06;102732.09;5053532;28;20031;-59
2021/09/05 01:29:10;;;;;;;0.75;0.32;;;;;;;19.26;61.99;102736.41;5035230;28;20040;-58
2021/09/05 01:31:45;;;;;;;2.85;1.25;;;;;;;19.16;61.58;102735.47;5053349;28;20024;-59
2021/09/05 01:34:13;;;;;;;2.47;0.82;;;;;;;19.21;62.08;102733.22;5053419;28;20390;-59
2021/09/05 01:36:39;;;;;;;4.97;1.05;;;;;;;19.12;60.96;102734.00;5053199;28;20029;-59
2021/09/05 01:39:11;;;;;;;2.45;0.90;;;;;;;19.20;61.98;102720.59;5052831;28;20063;-59
2021/09/05 01:41:36;;;;;;;2.47;1.00;;;;;;;19.19;61.96;102732.47;5035004;28;20052;-59
2021/09/05 01:44:04;;;;;;;1.80;0.85;;;;;;;19.23;61.75;102731.22;5053073;28;20039;-59
2021/09/05 01:46:30;;;;;;;4.60;0.77;;;;;;;19.18;62.01;102733.47;5053327;28;20071;-59
2021/09/05 01:48:56;;;;;;;2.17;0.82;;;;;;;19.25;60.89;102729.22;5053117;28;20103;-59
2021/09/05 01:51:22;;;;;;;1.63;0.93;;;;;;;19.19;61.45;102729.75;5052998;28;20530;-59
2021/09/05 01:53:47;;;;;;;5.18;0.98;;;;;;;19.18;61.72;102730.75;5053091;28;20036;-59
2021/09/05 01:56:13;;;;;;;1.77;0.68;;;;;;;19.23;61.66;102731.22;5034920;28;20021;-59
2021/09/05 01:58:38;;;;;;;1.70;0.50;;;;;;;19.21;61.33;102727.75;5053157;28;20112;-59
2021/09/05 02:01:04;;;;;;;1.33;0.40;;;;;;;19.12;61.43;102734.00;5052010;28;20025;-59
2021/09/05 02:03:29;;;;;;;3.65;1.23;;;;;;;19.10;61.66;102730.53;5052844;28;20151;-59
2021/09/05 02:05:54;;;;;;;1.42;0.70;;;;;;;19.16;61.57;102730.03;5052782;28;20025;-58
2021/09/05 02:08:20;;;;;;;0.73;0.60;;;;;;;19.11;62.40;102732.25;5052741;28;20025;-59
2021/09/05 02:10:45;;;;;;;1.85;0.50;;;;;;;19.17;62.32;102734.47;5052676;28;20017;-59
2021/09/05 02:13:11;;;;;;;1.63;0.70;;;;;;;19.22;61.62;102724.03;5052655;28;20108;-59
2021/09/05 02:15:36;;;;;;;2.60;0.60;;;;;;;19.15;61.85;102725.56;5052558;28;20033;-59
2021/09/05 02:18:01;;;;;;;1.23;0.60;;;;;;;19.14;61.89;102723.81;5052437;28;20032;-59
2021/09/05 02:20:27;;;;;;;2.38;0.88;;;;;;;19.13;62.07;102730.25;5052981;28;20021;-59
2021/09/05 02:22:52;;;;;;;1.42;0.68;;;;;;;19.12;61.73;102734.00;5052428;28;20108;-59
2021/09/05 02:25:18;;;;;;;0.63;0.38;;;;;;;19.16;61.77;102730.03;5052457;28;20017;-58
2021/09/05 02:27:44;;;;;;;2.08;0.57;;;;;;;19.12;61.88;102731.25;5052739;28;20446;-59
2021/09/05 02:30:10;;;;;;;1.85;0.60;;;;;;;19.16;61.88;102725.44;5052601;28;20067;-59
2021/09/05 02:32:36;;;;;;;1.67;0.77;;;;;;;19.16;62.41;102721.84;5052734;28;20021;-59
2021/09/05 02:35:02;;;;;;;1.92;0.77;;;;;;;19.18;61.46;102728.03;5052320;28;20028;-59
2021/09/05 02:37:27;;;;;;;1.73;0.68;;;;;;;19.23;61.46;102726.63;5034946;28;20129;-59
2021/09/05 02:39:53;;;;;;;1.55;0.80;;;;;;;19.19;61.87;102729.75;5052306;28;20462;-59
2021/09/05 02:42:18;;;;;;;3.08;0.80;;;;;;;19.16;62.58;102724.56;5052358;28;20053;-59
2021/09/05 02:44:43;;;;;;;2.20;0.45;;;;;;;19.11;63.17;102734.97;5052713;28;20438;-59
2021/09/05 02:47:09;;;;;;;1.25;0.45;;;;;;;19.14;62.66;102734.72;5052343;28;20496;-59
2021/09/05 02:49:34;;;;;;;2.38;0.73;;;;;;;19.15;62.87;102739.22;5052443;28;20040;-59
2021/09/05 02:52:00;;;;;;;1.25;0.77;;;;;;;19.13;61.68;102741.16;5052107;28;20028;-59
2021/09/05 02:54:25;;;;;;;1.73;0.50;;;;;;;19.18;62.16;102745.25;5052540;28;20053;-59
2021/09/05 02:56:50;;;;;;;3.28;0.80;;;;;;;19.16;62.10;102741.78;5052489;28;20389;-59
2021/09/05 02:59:16;;;;;;;3.10;0.70;;;;;;;19.18;62.09;102741.66;5052117;28;20096;-59
2021/09/05 03:01:41;;;;;;;1.20;0.63;;;;;;;19.17;62.09;102737.22;5052766;28;20381;-59
2021/09/05 03:04:07;;;;;;;1.67;0.40;;;;;;;19.13;62.29;102746.63;5052124;28;20416;-59
2021/09/05 03:06:32;;;;;;;1.40;0.85;;;;;;;19.11;61.49;102751.34;5052401;28;20033;-59
2021/09/05 03:08:58;;;;;;;3.83;0.98;;;;;;;19.18;61.90;102755.31;5051961;28;20051;-58
2021/09/05 03:11:23;;;;;;;1.05;0.43;;;;;;;19.24;61.09;102752.91;5052307;28;20025;-60
2021/09/05 03:13:48;;;;;;;1.40;0.80;;;;;;;19.15;62.33;102755.56;5055363;28;20104;-59
2021/09/05 03:16:14;;;;;;;2.05;0.70;;;;;;;19.10;63.10;102757.78;5055709;28;20579;-59
2021/09/05 03:18:39;;;;;;;3.03;0.52;;;;;;;19.09;62.21;102756.06;5055958;28;20644;-59
2021/09/05 03:21:05;;;;;;;2.60;0.57;;;;;;;19.08;61.83;102759.78;5055559;28;20043;-59
2021/09/05 03:23:30;;;;;;;1.45;0.70;;;;;;;19.13;62.08;102757.53;5055681;28;20017;-60
2021/09/05 03:25:56;;;;;;;0.75;0.43;;;;;;;19.09;61.78;102759.66;5055716;28;20104;-59
2021/09/05 03:28:21;;;;;;;1.50;0.63;;;;;;;19.09;62.21;102756.06;5055848;28;20025;-59
2021/09/05 03:30:46;;;;;;;2.95;0.98;;;;;;;19.05;62.40;102749.16;5055420;28;20336;-60
2021/09/05 03:33:12;;;;;;;2.05;0.50;;;;;;;19.08;62.16;102755.19;5055542;28;20032;-59
2021/09/05 03:35:37;;;;;;;1.20;0.43;;;;;;;19.10;62.84;102757.78;5055623;28;20031;-59
2021/09/05 03:38:02;;;;;;;2.95;0.70;;;;;;;19.11;61.85;102754.06;5055117;28;20021;-58
2021/09/05 03:40:28;;;;;;;2.53;0.80;;;;;;;19.05;62.96;102751.88;5038119;28;20392;-59
2021/09/05 03:42:53;;;;;;;2.75;0.80;;;;;;;19.06;61.66;102745.44;5054850;28;20052;-59
2021/09/05 03:45:18;;;;;;;1.48;0.73;;;;;;;19.06;63.22;102751.75;5055299;28;20025;-59
2021/09/05 03:47:44;;;;;;;2.47;0.82;;;;;;;19.03;62.21;102752.00;5055452;28;20021;-59
2021/09/05 03:50:09;;;;;;;1.30;0.50;;;;;;;19.12;61.67;102758.53;5055059;28;20556;-59
2021/09/05 03:52:35;;;;;;;1.75;0.70;;;;;;;19.14;61.31;102759.25;5055316;28;20021;-59
2021/09/05 03:55:01;;;;;;;1.33;0.65;;;;;;;19.08;62.30;102760.66;5054852;28;20037;-59
2021/09/05 03:57:26;;;;;;;1.92;0.85;;;;;;;19.09;62.71;102759.66;5054915;28;20052;-59
2021/09/05 03:59:51;;;;;;;2.17;0.68;;;;;;;19.08;62.41;102759.78;5055080;28;20358;-59
2021/09/05 04:02:18;;;;;;;1.38;0.43;;;;;;;19.36;61.64;102750.13;5055336;28;20049;-59
2021/09/05 04:04:43;;;;;;;2.33;0.40;;;;;;;19.78;60.48;102753.72;5054821;28;20039;-61
2021/09/05 04:07:11;;;;;;;1.05;0.55;;;;;;;20.00;59.63;102749.97;5054992;28;20033;-59
2021/09/05 04:12:20;;;;;;;1.70;0.53;;;;;;;20.39;59.56;102753.72;5055137;28;20112;-59
2021/09/05 04:14:46;;;;;;;1.00;0.55;;;;;;;20.52;58.79;102753.50;5054850;28;20049;-59
2021/09/05 04:17:11;;;;;;;1.27;0.52;;;;;;;20.63;59.13;102756.97;5054703;28;20063;-59
2021/09/05 04:19:37;;;;;;;0.40;0.30;;;;;;;20.55;60.26;102747.75;5054606;28;20053;-59
2021/09/05 04:22:03;;;;;;;1.38;0.90;;;;;;;20.61;59.60;102748.03;5054538;28;20025;-59
2021/09/05 04:24:28;;;;;;;1.25;0.80;;;;;;;20.55;60.98;102756.81;5053831;28;20025;-59
2021/09/05 04:26:54;;;;;;;0.52;0.45;;;;;;;20.59;60.03;102750.06;5054549;28;20367;-58
2021/09/05 04:29:19;;;;;;;0.80;0.40;;;;;;;20.67;60.03;102755.69;5054563;28;20037;-59
2021/09/05 04:31:46;;;;;;;0.43;0.30;;;;;;;20.69;60.18;102750.97;5054563;28;20070;-59
2021/09/05 04:34:11;;;;;;;0.77;0.35;;;;;;;20.75;59.57;102748.66;5054129;28;20025;-59
2021/09/05 04:36:37;;;;;;;0.77;0.40;;;;;;;20.71;60.95;102751.69;5054483;28;20063;-59
2021/09/05 04:39:02;;;;;;;0.52;0.38;;;;;;;20.66;60.47;102753.97;5054110;28;20029;-59
2021/09/05 04:41:28;;;;;;;1.75;0.60;;;;;;;20.64;60.59;102758.69;5053700;28;20049;-59
2021/09/05 04:43:53;;;;;;;0.52;0.40;;;;;;;20.77;60.94;102763.03;5054402;28;20065;-60
2021/09/05 04:46:18;;;;;;;1.15;0.52;;;;;;;20.73;61.15;102765.19;5053801;28;20064;-59
2021/09/05 04:48:43;;;;;;;2.25;0.70;;;;;;;20.78;61.21;102770.22;5053918;28;20515;-60
2021/09/05 04:51:09;;;;;;;0.60;0.40;;;;;;;20.72;61.45;102767.06;5053955;28;20021;-59
2021/09/05 04:53:34;;;;;;;1.27;0.60;;;;;;;20.74;62.18;102769.66;5054095;28;20029;-59
2021/09/05 04:56:00;;;;;;;1.13;0.82;;;;;;;20.74;62.44;102769.66;5054037;28;20028;-63
2021/09/05 04:58:25;;;;;;;1.10;0.70;;;;;;;20.77;61.65;102774.84;5053897;28;20029;-59
2021/09/05 05:00:50;;;;;;;1.17;0.63;;;;;;;20.74;62.32;102769.66;5053562;28;20058;-59
2021/09/05 05:03:16;;;;;;;0.82;0.50;;;;;;;20.73;61.94;102774.25;5053737;28;20017;-60
2021/09/05 05:05:42;;;;;;;2.08;0.70;;;;;;;20.77;62.05;102763.03;5053839;28;20047;-59
2021/09/05 05:08:07;;;;;;;0.88;0.55;;;;;;;20.82;62.35;102760.72;5053609;28;20474;-59
2021/09/05 05:10:33;;;;;;;1.25;0.40;;;;;;;20.77;62.82;102769.38;5053529;28;20385;-59
2021/09/05 05:12:59;;;;;;;1.33;0.65;;;;;;;20.81;61.64;102770.81;5053588;28;20377;-59
2021/09/05 05:15:24;;;;;;;0.50;0.43;;;;;;;20.83;61.85;102767.97;5053562;28;20021;-60
2021/09/05 05:17:49;;;;;;;1.05;0.70;;;;;;;20.76;62.71;102773.09;5053568;28;20036;-59
2021/09/05 05:20:15;;;;;;;0.82;0.68;;;;;;;20.81;63.04;102775.41;5053249;28;20405;-59
2021/09/05 05:22:40;;;;;;;1.05;0.43;;;;;;;20.82;63.42;102774.41;5053628;28;20036;-60
2021/09/05 05:25:07;;;;;;;1.63;0.70;;;;;;;20.94;62.96;102776.88;5053367;28;20021;-59
2021/09/05 05:27:32;;;;;;;0.75;0.40;;;;;;;20.96;62.76;102782.19;5053450;28;20021;-59
2021/09/05 05:29:57;;;;;;;1.55;0.50;;;;;;;20.90;62.24;102780.03;5053242;28;20461;-60
2021/09/05 05:32:24;;;;;;;1.48;0.70;;;;;;;20.89;63.45;102778.31;5053313;28;20025;-61
2021/09/05 05:34:49;;;;;;;1.25;0.60;;;;;;;20.96;62.45;102784.94;5052521;28;20025;-60
2021/09/05 05:37:14;;;;;;;0.50;0.38;;;;;;;20.86;62.88;102781.34;5053155;28;20025;-59
2021/09/05 05:39:40;;;;;;;2.63;0.88;;;;;;;20.85;63.42;102791.41;5053116;28;20021;-60
2021/09/05 05:42:05;;;;;;;0.38;0.30;;;;;;;20.92;63.13;102788.97;5052969;28;20045;-59
2021/09/05 05:44:31;;;;;;;1.95;0.60;;;;;;;21.00;62.75;102783.66;5053359;28;20461;-60
2021/09/05 05:46:56;;;;;;;1.42;0.70;;;;;;;20.97;63.19;102792.13;5053254;28;20032;-59
2021/09/05 05:49:21;;;;;;;3.08;0.70;;;;;;;21.00;63.45;102791.88;5052978;28;20025;-59
2021/09/05 05:51:46;;;;;;;1.60;0.40;;;;;;;20.94;63.56;102795.16;5053070;28;20058;-59
2021/09/05 05:54:15;;;;;;;0.88;0.50;;;;;;;20.92;63.72;102795.28;5052666;28;20531;-60
2021/09/05 05:56:40;;;;;;;0.60;0.45;;;;;;;20.94;63.08;102792.41;5052876;28;20036;-62
2021/09/05 05:59:06;;;;;;;1.33;0.50;;;;;;;20.93;64.79;102786.09;5052759;28;20017;-60
2021/09/05 06:01:31;;;;;;;1.08;0.60;;;;;;;20.89;63.17;102789.25;5052775;28;20025;-60
2021/09/05 06:03:57;;;;;;;0.85;0.40;;;;;;;20.93;63.60;102790.69;5052795;28;20025;-59
2021/09/05 06:06:22;;;;;;;0.75;0.50;;;;;;;20.94;63.97;102796.00;5052770;28;20021;-60
2021/09/05 06:08:47;;;;;;;1.45;0.55;;;;;;;20.93;63.27;102796.16;5052597;28;20361;-60
2021/09/05 06:11:13;;;;;;;0.63;0.55;;;;;;;20.91;64.09;102799.03;5052719;28;20091;-59
2021/09/05 06:13:38;;;;;;;1.58;0.60;;;;;;;20.91;63.63;102799.03;5053014;28;20508;-59
2021/09/05 06:16:04;;;;;;;1.25;0.60;;;;;;;21.04;63.64;102801.50;5052743;28;20104;-59
2021/09/05 06:18:29;;;;;;;2.67;1.00;;;;;;;20.94;63.61;102803.34;5052825;28;20017;-60
2021/09/05 06:20:54;;;;;;;1.70;0.70;;;;;;;20.88;64.13;102799.31;5052658;28;20474;-59
2021/09/05 06:23:20;;;;;;;2.17;0.65;;;;;;;20.94;64.04;102797.88;5052746;28;20449;-60
2021/09/05 06:25:45;;;;;;;0.85;0.55;;;;;;;21.01;64.18;102804.53;5052849;28;20025;-60
2021/09/05 06:28:11;;;;;;;0.73;0.57;;;;;;;20.93;64.38;102801.63;5052539;28;20027;-59
2021/09/05 06:30:36;;;;;;;1.80;0.57;;;;;;;20.96;63.72;102796.75;5052932;28;20029;-60
2021/09/05 06:33:01;;;;;;;1.73;0.70;;;;;;;21.01;64.42;102797.19;5052625;28;20028;-60
2021/09/05 06:35:28;;;;;;;0.40;0.30;;;;;;;21.02;64.01;102795.31;5052465;28;20020;-59
2021/09/05 06:37:53;;;;;;;1.98;0.57;;;;;;;21.00;63.46;102794.59;5052569;28;20025;-59
2021/09/05 06:40:18;;;;;;;0.90;0.60;;;;;;;21.02;63.52;102798.06;5052628;28;20028;-60
2021/09/05 06:42:44;;;;;;;0.77;0.40;;;;;;;21.02;63.84;102773.44;5052530;28;20524;-59
2021/09/05 06:45:09;;;;;;;1.40;0.45;;;;;;;21.02;64.83;102776.19;5052780;28;20032;-59
2021/09/05 06:47:34;;;;;;;1.15;0.40;;;;;;;21.03;63.97;102781.50;5055566;28;20064;-60
2021/09/05 06:50:00;;;;;;;1.00;0.40;;;;;;;21.05;64.07;102767.69;5055972;28;20025;-59
2021/09/05 06:52:25;;;;;;;1.55;0.70;;;;;;;20.94;64.81;102770.53;5056486;28;20464;-59
2021/09/05 06:54:50;;;;;;;0.98;0.40;;;;;;;20.95;64.61;102773.13;5038407;28;20561;-59
2021/09/05 06:57:16;;;;;;;2.13;0.43;;;;;;;20.88;65.04;102777.47;5056270;28;20448;-59
2021/09/05 06:59:41;;;;;;;0.57;0.40;;;;;;;20.98;64.44;102766.50;5056055;28;20025;-60
2021/09/05 07:02:06;;;;;;;0.35;0.30;;;;;;;20.89;64.18;102770.13;5038297;28;20020;-59
2021/09/05 07:04:32;;;;;;;1.83;0.40;;;;;;;20.83;64.88;102778.91;5056226;28;20031;-60
2021/09/05 07:06:57;;;;;;;0.70;0.40;;;;;;;20.79;64.85;102766.50;5055983;28;20031;-59
2021/09/05 07:09:23;;;;;;;1.10;0.40;;;;;;;20.77;64.47;102768.50;5055911;28;20025;-59
2021/09/05 07:11:48;;;;;;;0.82;0.50;;;;;;;20.84;64.62;102766.94;5055859;28;20032;-59
2021/09/05 07:14:13;;;;;;;1.58;0.63;;;;;;;20.83;63.83;102773.44;5055982;28;20532;-60
2021/09/05 07:16:39;;;;;;;0.75;0.30;;;;;;;20.78;65.99;102771.09;5056030;28;20033;-60
2021/09/05 07:19:04;;;;;;;1.73;0.50;;;;;;;20.81;65.39;102767.22;5055796;28;20043;-59
2021/09/05 07:21:29;;;;;;;0.75;0.30;;;;;;;20.77;64.63;102771.25;5055987;28;20033;-60
2021/09/05 07:23:55;;;;;;;1.50;0.47;;;;;;;20.91;63.89;102781.78;5055751;28;20369;-60
2021/09/05 07:26:20;;;;;;;1.55;0.40;;;;;;;20.83;64.79;102774.28;5055906;28;20036;-60
2021/09/05 07:28:45;;;;;;;1.80;0.38;;;;;;;20.91;64.99;102779.03;5055645;28;20057;-59
2021/09/05 07:31:11;;;;;;;1.60;0.28;;;;;;;20.85;64.79;102771.41;5055621;28;20066;-60
2021/09/05 07:33:36;;;;;;;2.33;0.50;;;;;;;20.90;64.89;102774.56;5055745;28;20521;-60
2021/09/05 07:36:02;;;;;;;1.48;0.20;;;;;;;20.85;65.15;102776.88;5055357;28;20025;-59
2021/09/05 07:38:27;;;;;;;0.75;0.43;;;;;;;20.88;65.14;102782.06;5055664;28;20029;-59
2021/09/05 07:40:53;;;;;;;3.40;0.70;;;;;;;20.85;64.86;102775.00;5055060;28;20055;-61
2021/09/05 07:43:18;;;;;;;3.03;0.50;;;;;;;20.84;65.09;102775.16;5055722;28;20032;-59
2021/09/05 07:45:43;;;;;;;1.02;0.40;;;;;;;20.82;64.33;102778.00;5055405;28;20025;-60
2021/09/05 07:48:09;;;;;;;2.20;0.50;;;;;;;20.85;64.17;102787.81;5055302;28;20092;-60
2021/09/05 07:50:34;;;;;;;1.38;0.43;;;;;;;20.87;64.35;102783.94;5055057;28;20044;-59
2021/09/05 07:52:59;;;;;;;0.95;0.40;;;;;;;20.83;64.49;102779.75;5055132;28;20036;-59
2021/09/05 07:55:25;;;;;;;0.95;0.28;;;;;;;20.88;64.92;102790.25;5055505;28;20399;-60
2021/09/05 07:57:50;;;;;;;0.10;0.10;;;;;;;20.88;65.13;102793.00;5054342;28;20473;-59
2021/09/05 08:00:16;;;;;;;0.30;0.22;;;;;;;20.95;65.29;102788.69;5055147;28;20017;-60
2021/09/05 08:02:41;;;;;;;0.98;0.40;;;;;;;20.92;65.41;102788.97;5055105;28;20070;-60
2021/09/05 08:05:10;;;;;;;2.20;0.40;;;;;;;20.85;65.47;102793.28;5054950;28;20017;-60
2021/09/05 08:07:36;;;;;;;2.78;0.73;;;;;;;20.83;65.45;102789.84;5054995;28;20035;-59
2021/09/05 08:10:03;;;;;;;2.13;0.30;;;;;;;20.86;64.72;102795.00;5054810;28;20028;-59
2021/09/05 08:12:29;;;;;;;0.95;0.28;;;;;;;20.92;65.17;102789.84;5055011;28;20457;-59
2021/09/05 08:14:54;;;;;;;1.63;0.40;;;;;;;20.93;65.11;102790.69;5054441;28;20021;-60
2021/09/05 08:17:19;;;;;;;1.67;0.50;;;;;;;20.88;65.31;102793.88;5054842;28;20025;-60
2021/09/05 08:19:48;;;;;;;0.52;0.20;;;;;;;20.92;64.99;102794.44;5054807;28;20020;-60
2021/09/05 08:22:14;;;;;;;0.85;0.30;;;;;;;20.93;65.48;102796.16;5054432;28;20375;-59
2021/09/05 08:24:39;;;;;;;3.03;0.60;;;;;;;20.95;65.42;102795.00;5054741;28;20104;-59
2021/09/05 08:27:05;;;;;;;1.75;0.40;;;;;;;20.96;65.62;102790.41;5054277;28;20024;-59
2021/09/05 08:29:30;;;;;;;0.90;0.55;;;;;;;21.04;64.93;102796.03;5054437;28;20037;-59
2021/09/05 08:31:55;;;;;;;0.75;0.30;;;;;;;21.01;64.66;102789.00;5054250;28;20048;-60
2021/09/05 08:34:21;;;;;;;0.60;0.28;;;;;;;20.92;65.37;102786.22;5054073;28;20020;-60
2021/09/05 08:36:46;;;;;;;0.50;0.13;;;;;;;20.93;64.82;102791.56;5054458;28;20051;-59
2021/09/05 08:39:12;;;;;;;1.75;0.38;;;;;;;21.00;65.32;102792.72;5054481;28;20020;-60
2021/09/05 08:41:38;;;;;;;1.92;0.40;;;;;;;20.94;65.65;102792.41;5054125;28;20037;-59
2021/09/05 08:44:03;;;;;;;1.10;0.30;;;;;;;21.04;64.77;102787.84;5054149;28;20021;-59
2021/09/05 08:46:29;;;;;;;1.65;0.55;;;;;;;21.08;65.37;102788.41;5054243;28;20021;-59
2021/09/05 08:48:55;;;;;;;1.75;0.20;;;;;;;21.09;64.81;102791.00;5053999;28;20029;-60
2021/09/05 08:51:21;;;;;;;0.55;0.20;;;;;;;21.00;64.95;102791.88;5054059;28;20039;-60
2021/09/05 08:53:47;;;;;;;0.52;0.20;;;;;;;21.02;65.35;102784.38;5054085;28;20029;-59
2021/09/05 08:56:12;;;;;;;1.55;0.70;;;;;;;21.03;65.04;102786.13;5054191;28;20070;-60
2021/09/05 08:58:38;;;;;;;0.75;0.32;;;;;;;21.04;65.27;102787.84;5054036;28;20017;-59
2021/09/05 09:01:26;;;;;;;0.50;0.30;;;;;;;21.02;65.32;102778.91;5053598;28;20028;-59
2021/09/05 09:04:03;;;;;;;2.08;0.55;;;;;;;20.92;65.13;102783.50;5036008;28;20124;-60
2021/09/05 09:06:39;;;;;;;1.40;0.40;;;;;;;21.04;65.26;102785.09;5036167;28;20027;-59
2021/09/05 09:09:05;;;;;;;0.63;0.35;;;;;;;21.00;64.84;102786.41;5035964;28;20439;-60
2021/09/05 09:11:57;;;;;;;0.82;0.30;;;;;;;20.98;65.44;102788.38;5053746;28;20029;-60
2021/09/05 09:14:38;;;;;;;1.88;0.28;;;;;;;21.02;65.57;102779.78;5050201;28;20048;-59
2021/09/05 09:17:03;;;;;;;0.20;0.10;;;;;;;21.03;65.09;102781.50;5053407;28;20047;-60
2021/09/05 09:19:29;;;;;;;1.42;0.55;;;;;;;21.01;66.13;102777.19;5053598;28;20568;-60
2021/09/05 09:21:55;;;;;;;0.73;0.20;;;;;;;20.97;65.36;102782.06;5053440;28;20021;-60
2021/09/05 09:24:22;;;;;;;0.55;0.20;;;;;;;20.99;65.23;102779.19;5035743;28;20098;-59
2021/09/05 09:27:03;;;;;;;1.25;0.22;;;;;;;21.01;65.04;102777.19;5053527;28;20066;-60
2021/09/05 09:29:28;;;;;;;1.83;0.40;;;;;;;21.12;65.08;102774.31;5053375;28;20029;-59
2021/09/05 09:32:05;;;;;;;1.00;0.20;;;;;;;21.10;65.38;102775.44;5053245;28;20029;-59
2021/09/05 09:34:41;;;;;;;1.20;0.30;;;;;;;21.14;65.32;102774.16;5053456;28;20033;-60
2021/09/05 09:37:21;;;;;;;0.77;0.35;;;;;;;21.07;65.74;102770.28;5052954;28;20036;-60
2021/09/05 09:39:52;;;;;;;0.77;0.20;;;;;;;21.02;65.45;102770.72;5053472;28;20063;-59
2021/09/05 09:42:30;;;;;;;2.90;0.60;;;;;;;20.97;65.62;102762.91;5053006;28;20056;-59
2021/09/05 09:44:55;;;;;;;0.93;0.50;;;;;;;21.02;65.04;102762.50;5053143;28;20472;-59
2021/09/05 09:47:21;;;;;;;1.05;0.40;;;;;;;21.07;64.98;102765.66;5053226;28;20119;-59
2021/09/05 09:49:48;;;;;;;1.48;0.57;;;;;;;21.06;65.81;102763.94;5052805;28;20025;-59
2021/09/05 09:52:14;;;;;;;1.15;0.38;;;;;;;21.09;65.00;102760.91;5053212;28;20096;-60
2021/09/05 09:54:41;;;;;;;0.60;0.20;;;;;;;21.06;65.35;102763.94;5053016;28;20053;-60
2021/09/05 09:57:07;;;;;;;0.95;0.15;;;;;;;21.14;65.28;102755.88;5052826;28;20032;-60
2021/09/05 09:59:32;;;;;;;2.15;0.70;;;;;;;21.11;64.99;102752.56;5053024;28;20369;-60
2021/09/05 10:01:58;;;;;;;0.90;0.30;;;;;;;21.13;64.62;102754.13;5052853;28;20458;-59
2021/09/05 10:04:24;;;;;;;0.90;0.28;;;;;;;21.14;64.87;102744.94;5053278;28;20025;-59
2021/09/05 10:06:50;;;;;;;0.80;0.30;;;;;;;21.11;65.14;102742.50;5052909;28;20021;-60
2021/09/05 10:09:18;;;;;;;1.92;0.55;;;;;;;21.11;64.69;102734.28;5052797;28;20032;-59
2021/09/05 10:11:43;;;;;;;0.55;0.30;;;;;;;21.16;64.80;102725.63;5052814;28;20029;-59
2021/09/05 10:14:10;;;;;;;1.00;0.32;;;;;;;21.14;65.05;102728.50;5052735;28;20028;-60
2021/09/05 10:16:36;;;;;;;2.03;0.47;;;;;;;21.11;66.24;102728.81;5052920;28;20025;-59
2021/09/05 10:19:04;;;;;;;0.35;0.20;;;;;;;21.18;65.13;102732.72;5052659;28;20021;-59
2021/09/05 10:21:34;;;;;;;0.68;0.30;;;;;;;21.15;65.24;102730.25;5054146;28;20060;-59
2021/09/05 10:23:59;;;;;;;1.10;0.20;;;;;;;21.18;65.62;102729.13;5056835;28;20031;-60
2021/09/05 10:26:26;;;;;;;1.52;0.60;;;;;;;21.09;65.23;102724.50;5056956;28;20024;-59
2021/09/05 10:28:53;;;;;;;0.55;0.20;;;;;;;21.07;65.30;102721.03;5056719;28;20075;-59
2021/09/05 10:31:30;;;;;;;1.75;0.63;;;;;;;21.11;65.59;102728.81;5056661;28;20091;-59
2021/09/05 10:33:57;;;;;;;1.45;0.50;;;;;;;21.25;64.54;102713.88;5056605;28;20040;-59
2021/09/05 10:36:25;;;;;;;1.80;0.90;;;;;;;21.20;64.67;102711.53;5056761;28;20025;-59
2021/09/05 10:38:52;;;;;;;1.83;0.28;;;;;;;21.13;65.04;102710.38;5056824;28;20032;-59
2021/09/05 10:41:20;;;;;;;2.38;0.55;;;;;;;21.16;65.08;102710.09;5056276;28;20044;-60
2021/09/05 10:43:48;;;;;;;2.33;0.40;;;;;;;21.16;65.16;102714.69;5056499;28;20103;-59
2021/09/05 10:46:16;;;;;;;1.65;0.38;;;;;;;21.05;65.88;102715.72;5056557;28;20021;-60
2021/09/05 10:48:50;;;;;;;0.88;0.30;;;;;;;21.13;65.24;102717.72;5056538;28;20064;-60
2021/09/05 10:51:39;;;;;;;0.52;0.30;;;;;;;21.16;65.71;102704.63;5056198;28;20119;-59
2021/09/05 10:54:19;;;;;;;0.80;0.40;;;;;;;21.25;65.24;102712.00;5056126;28;20025;-62
2021/09/05 10:56:45;;;;;;;1.75;0.20;;;;;;;21.23;65.32;102705.78;5056742;28;20052;-59
2021/09/05 10:59:21;;;;;;;0.63;0.20;;;;;;;21.17;65.70;102706.38;5056123;28;20625;-60
2021/09/05 11:01:46;;;;;;;0.80;0.20;;;;;;;21.14;65.41;102701.16;5056278;28;20025;-59
2021/09/05 11:04:12;;;;;;;0.98;0.20;;;;;;;21.27;64.86;102690.81;5055969;28;20028;-60
2021/09/05 11:06:48;;;;;;;1.75;0.55;;;;;;;21.26;64.71;102686.38;5038497;28;20384;-60
2021/09/05 11:09:23;;;;;;;0.88;0.30;;;;;;;21.16;65.00;102690.94;5055997;28;20025;-59
2021/09/05 11:11:58;;;;;;;;;;;;;;;21.25;65.36;102687.38;5056544;28;20048;-59
2021/09/05 11:14:48;;;;;;;0.57;0.20;;;;;;;21.26;65.69;102683.63;5056113;28;19912;-60
2021/09/05 11:17:22;;;;;;;1.00;0.20;;;;;;;21.23;65.07;102678.41;5055716;28;20048;-59
2021/09/05 11:19:51;;;;;;;1.42;0.30;;;;;;;21.21;65.07;102677.72;5055774;28;20021;-59
2021/09/05 11:22:43;;;;;;;0.80;0.28;;;;;;;21.27;65.28;102681.75;5055656;28;20103;-59
2021/09/05 11:25:09;;;;;;;2.20;1.02;;;;;;;21.19;65.38;102677.00;5055688;28;20096;-60